Americus, GA

6:54 AM EDT on July 30, 2014 (GMT -0400)
RAWS AMERICUS/PLAINS GA US (MPLAG1) Elev 456 ft | 32.11 °N, 84.18 °W | Change Station

Current weather conditions updated 51 minutes ago

Clear
Clear
63 °F
Feels Like 63 °F
N
4
Wind Variable Wind from North
Gusts 6.0 mph

Today is forecast to be nearly the same temperature as yesterday.

Today
High -- | Low -- °F
--% Chance of Precip.
Yesterday
High -- | Low -- °F
Precip. -- in
6:50 AM 8:35 PM
Waxing Crescent, 11% visible
Pressure 30.03 in
Visibility 10.0 miles
Clouds Clear
Dew Point 57 °F
Humidity 82%
Rainfall 0.00 in
Snow Depth Not available.
UV 0 out of 12
Pollen 6.00 out of 12
Air Quality Not available.
Flu Activity Not available.
METAR KACJ 301035Z AUTO 01005KT 10SM CLR 17/13 A3003 RMK AO2

More Conditions Fewer Conditions

Pressure 30.03 in
Visibility 10.0 miles
Clouds Clear
Dew Point 57 °F
Humidity 82%
Rainfall 0.00 in
Snow Depth Not available.
UV 0 out of 12
Pollen 6.00 out of 12
Air Quality Not available.
Flu Activity Not available.
METAR KACJ 301035Z AUTO 01005KT 10SM CLR 17/13 A3003 RMK AO2

More Conditions Fewer Conditions

10-Day Weather Forecast

Almanac

Astronomy

Jul. 30, 2014 Rise Set
Actual Time 6:50 AM EDT 8:35 PM EDT
Civil Twilight 6:23 AM EDT 9:02 PM EDT
Nautical Twilight 5:51 AM EDT 9:34 PM EDT
Astronomical Twilight 5:17 AM EDT 10:08 PM EDT
Moon 10:06 AM EDT 10:34 PM EDT
Length of Visible Light 14h 38m
Length of Day
13h 44m
Tomorrow will be 1m 25s shorter.
Waxing Crescent, 11% of the Moon is Illuminated
Today
Waxing Crescent
Aug 3
First Quarter
Aug 10
Full
Aug 17
Last Quarter
Aug 25
New

Today's Extremes

State Highs State Lows

Community

WunderPhotos

Upload Photos

1,739,037 photos uploaded!

WunderBlogs® & News

Nearby

Snow Depth

Station Depth Elevation
No new snow has been reported.

Earthquake Activity

City Distance Mag. Time & Date
No recent earthquake activity has been reported nearby.
Minimum magnitude displayed is 2.5.

Coastal Water Temperatures

Place Temperature
No Stations Reporting

Nearby Weather Stations

Station Location Temp. Dew Point Humidity Wind Precip. Elev Updated Type
RAWS AMERICUS/PLAINS GA, Americus, GA 63 °F 57 °F 82% North  at  4 mph 0.00 in / hr 456 ft 6:03 AM EDT MADIS
Cobb, Cobb, GA 64.1 °F 60 °F 85% East  at  3.0 mph 0.00 in / hr 285 ft 6:41 AM EDT Normal

Show More Stations Show Fewer Stations